createdAt,value
2023-02-20T00:00:46.764Z,74.70
2023-02-20T00:03:16.420Z,74.90
2023-02-20T00:05:43.462Z,75.20
2023-02-20T00:08:10.598Z,74.90
2023-02-20T00:10:37.444Z,75.40
2023-02-20T00:13:04.301Z,75.00
2023-02-20T00:15:31.112Z,75.10
2023-02-20T00:17:58.004Z,75.10
2023-02-20T00:20:26.349Z,75.00
2023-02-20T00:22:53.584Z,75.00
2023-02-20T00:25:21.577Z,75.30
2023-02-20T00:27:48.822Z,75.10
2023-02-20T00:30:18.484Z,75.30
2023-02-20T00:32:50.656Z,74.90
2023-02-20T00:35:18.688Z,75.00
2023-02-20T00:37:49.895Z,75.00
2023-02-20T00:40:18.342Z,75.00
2023-02-20T00:42:45.793Z,74.80
2023-02-20T00:45:14.452Z,75.10
2023-02-20T00:47:41.269Z,75.20
2023-02-20T00:50:09.602Z,75.10
2023-02-20T00:52:36.453Z,75.00
2023-02-20T00:55:03.818Z,74.90
2023-02-20T00:57:30.568Z,74.90
2023-02-20T00:59:57.314Z,75.00
2023-02-20T01:02:24.472Z,75.00
2023-02-20T01:04:51.362Z,75.10
2023-02-20T01:07:18.204Z,75.20
2023-02-20T01:09:45.056Z,75.30
2023-02-20T01:12:11.866Z,75.00
2023-02-20T01:14:38.756Z,75.20
2023-02-20T01:17:05.553Z,75.00
2023-02-20T01:19:32.544Z,74.90
2023-02-20T01:22:00.424Z,75.20
2023-02-20T01:24:27.252Z,75.30
2023-02-20T01:26:54.053Z,75.20
2023-02-20T01:29:20.883Z,75.20
2023-02-20T01:31:52.024Z,75.10
2023-02-20T01:34:20.899Z,75.30
2023-02-20T01:36:53.088Z,75.10
2023-02-20T01:39:22.495Z,75.60
2023-02-20T01:41:54.151Z,75.30
2023-02-20T01:44:27.911Z,75.80
2023-02-20T01:46:56.819Z,75.40
2023-02-20T01:49:35.876Z,75.40
2023-02-20T01:52:17.286Z,75.80
2023-02-20T01:54:48.989Z,75.40
2023-02-20T01:57:21.852Z,75.50
2023-02-20T01:59:51.382Z,75.60
2023-02-20T02:02:18.491Z,75.70
2023-02-20T02:04:47.178Z,75.50
2023-02-20T02:07:15.414Z,75.60
2023-02-20T02:09:53.740Z,75.50
2023-02-20T02:12:21.391Z,75.40
2023-02-20T02:14:48.281Z,75.60
2023-02-20T02:17:25.907Z,75.60
2023-02-20T02:20:25.096Z,75.50
2023-02-20T02:23:18.903Z,75.30
2023-02-20T02:25:51.362Z,75.40
2023-02-20T02:28:54.615Z,76.00
2023-02-20T02:31:35.754Z,75.70
2023-02-20T02:34:15.715Z,76.10
2023-02-20T02:36:48.796Z,75.60
2023-02-20T02:39:46.562Z,76.10
2023-02-20T02:42:18.901Z,76.00
2023-02-20T02:45:14.656Z,76.40
2023-02-20T02:47:49.404Z,75.60
2023-02-20T02:50:29.856Z,76.40
2023-02-20T02:52:58.615Z,75.90
2023-02-20T02:55:28.561Z,76.20
2023-02-20T02:58:14.910Z,76.50
2023-02-20T03:00:59.753Z,75.90
2023-02-20T03:03:34.313Z,76.60
2023-02-20T03:06:06.420Z,75.70
2023-02-20T03:08:57.835Z,76.30
2023-02-20T03:11:28.252Z,76.30
2023-02-20T03:14:34.166Z,76.40
2023-02-20T03:17:16.165Z,76.10
2023-02-20T03:19:49.964Z,76.40
2023-02-20T03:22:26.913Z,76.50
2023-02-20T03:24:59.769Z,76.00
2023-02-20T03:27:42.881Z,76.50
2023-02-20T03:30:23.059Z,76.60
2023-02-20T03:33:14.553Z,76.50
2023-02-20T03:36:02.628Z,76.70
2023-02-20T03:38:50.964Z,76.70
2023-02-20T03:41:37.466Z,77.00
2023-02-20T03:44:06.842Z,77.00
2023-02-20T03:46:37.554Z,76.60
2023-02-20T03:49:12.355Z,76.70
2023-02-20T03:51:40.911Z,76.80
2023-02-20T03:54:08.868Z,76.60
2023-02-20T03:56:41.812Z,75.90
2023-02-20T03:59:20.036Z,76.50
2023-02-20T04:01:50.042Z,76.60
2023-02-20T04:04:26.228Z,76.30
2023-02-20T04:06:54.518Z,76.20
2023-02-20T04:09:28.996Z,76.40
2023-02-20T04:12:04.449Z,76.10
2023-02-20T04:14:32.350Z,75.70
2023-02-20T04:17:03.522Z,75.40
2023-02-20T04:19:31.019Z,75.80
2023-02-20T04:22:02.925Z,76.00
2023-02-20T04:24:39.622Z,75.80
2023-02-20T04:27:07.471Z,76.20
2023-02-20T04:29:34.277Z,75.90
2023-02-20T04:32:01.260Z,76.10
2023-02-20T04:34:28.206Z,75.70
2023-02-20T04:37:09.641Z,76.30
2023-02-20T04:39:36.461Z,76.00
2023-02-20T04:42:03.413Z,76.40
2023-02-20T04:44:33.982Z,76.60
2023-02-20T04:47:02.742Z,76.40
2023-02-20T04:49:29.796Z,76.70
2023-02-20T04:51:56.681Z,77.00
2023-02-20T04:54:23.928Z,77.00
2023-02-20T04:56:50.920Z,77.30
2023-02-20T04:59:18.259Z,77.50
2023-02-20T05:01:48.222Z,77.60
2023-02-20T05:04:16.370Z,77.30
2023-02-20T05:06:52.855Z,77.80
2023-02-20T05:09:21.266Z,77.70
2023-02-20T05:11:48.423Z,77.80
2023-02-20T05:14:15.775Z,78.10
2023-02-20T05:16:45.619Z,78.00
2023-02-20T05:19:13.261Z,77.90
2023-02-20T05:22:04.501Z,77.90
2023-02-20T05:24:32.348Z,78.30
2023-02-20T05:26:59.608Z,77.90
2023-02-20T05:29:26.497Z,79.20
2023-02-20T05:31:53.394Z,79.50
2023-02-20T05:34:22.662Z,79.30
2023-02-20T05:36:49.503Z,79.30
2023-02-20T05:39:16.398Z,79.40
2023-02-20T05:41:43.400Z,79.10
2023-02-20T05:44:10.283Z,79.40
2023-02-20T05:46:42.652Z,79.50
2023-02-20T05:49:10.794Z,79.10
2023-02-20T05:51:37.696Z,79.30
2023-02-20T05:54:05.445Z,79.20
2023-02-20T05:56:33.149Z,79.30
2023-02-20T05:59:00.848Z,79.20
2023-02-20T06:01:30.620Z,79.20
2023-02-20T06:03:57.889Z,79.30
2023-02-20T06:06:24.819Z,79.20
2023-02-20T06:08:51.840Z,79.20
2023-02-20T06:11:18.573Z,79.10
2023-02-20T06:13:46.542Z,79.20
2023-02-20T06:16:14.545Z,79.30
2023-02-20T06:18:42.738Z,79.00
2023-02-20T06:21:11.019Z,79.20
2023-02-20T06:23:38.740Z,79.30
2023-02-20T06:26:07.304Z,79.30
2023-02-20T06:28:34.848Z,79.10
2023-02-20T06:31:02.366Z,79.00
2023-02-20T06:33:29.777Z,79.00
2023-02-20T06:35:56.871Z,79.10
2023-02-20T06:38:24.578Z,79.20
2023-02-20T06:40:51.786Z,79.00
2023-02-20T06:43:19.025Z,79.10
2023-02-20T06:45:46.150Z,79.30
2023-02-20T06:48:14.526Z,79.20
2023-02-20T06:50:42.173Z,79.30
2023-02-20T06:53:09.330Z,79.20
2023-02-20T06:55:36.171Z,79.20
2023-02-20T06:58:03.006Z,79.30
2023-02-20T07:00:30.052Z,79.20
2023-02-20T07:02:56.865Z,79.20
2023-02-20T07:05:23.684Z,79.40
2023-02-20T07:07:50.465Z,79.20
2023-02-20T07:10:17.340Z,79.30
2023-02-20T07:12:44.154Z,79.10
2023-02-20T07:15:11.771Z,78.90
2023-02-20T07:17:38.544Z,79.20
2023-02-20T07:20:06.179Z,79.10
2023-02-20T07:22:33.075Z,79.30
2023-02-20T07:24:59.869Z,79.30
2023-02-20T07:27:26.645Z,79.30
2023-02-20T07:29:53.428Z,79.40
2023-02-20T07:32:23.403Z,79.10
2023-02-20T07:35:03.101Z,79.10
2023-02-20T07:37:31.068Z,79.30
2023-02-20T07:39:57.849Z,78.50
2023-02-20T07:42:24.708Z,78.90
2023-02-20T07:44:51.750Z,78.50
2023-02-20T07:47:18.572Z,78.50
2023-02-20T07:49:45.357Z,78.30
2023-02-20T07:52:12.141Z,78.10
2023-02-20T07:54:38.887Z,78.00
2023-02-20T07:57:05.788Z,77.90
2023-02-20T07:59:32.753Z,77.50
2023-02-20T08:01:59.524Z,76.10
2023-02-20T08:04:27.446Z,75.50
2023-02-20T08:06:54.185Z,75.50
2023-02-20T08:09:21.127Z,75.70
2023-02-20T08:11:48.118Z,75.40
2023-02-20T08:14:15.599Z,76.10
2023-02-20T08:16:43.062Z,75.60
2023-02-20T08:19:09.974Z,75.40
2023-02-20T08:21:36.788Z,75.30
2023-02-20T08:24:03.794Z,75.40
2023-02-20T08:26:30.669Z,75.20
2023-02-20T08:28:57.483Z,75.10
2023-02-20T08:31:32.095Z,74.80
2023-02-20T08:34:00.368Z,75.00
2023-02-20T08:36:27.310Z,74.70
2023-02-20T08:38:54.978Z,74.70
2023-02-20T08:41:21.757Z,74.40
2023-02-20T08:43:48.602Z,74.30
2023-02-20T08:46:16.124Z,74.70
2023-02-20T08:48:43.675Z,74.10
2023-02-20T08:51:10.710Z,73.70
2023-02-20T08:53:39.904Z,73.30
2023-02-20T08:56:07.472Z,73.40
2023-02-20T08:58:34.248Z,73.00
2023-02-20T09:01:01.131Z,72.90
2023-02-20T09:03:28.075Z,72.40
2023-02-20T09:05:54.927Z,73.00
2023-02-20T09:08:21.884Z,72.50
2023-02-20T09:10:48.905Z,72.60
2023-02-20T09:13:15.897Z,72.50
2023-02-20T09:15:42.653Z,72.10
2023-02-20T09:18:13.195Z,72.70
2023-02-20T09:20:40.964Z,72.50
2023-02-20T09:23:08.302Z,72.20
2023-02-20T09:25:36.074Z,72.50
2023-02-20T09:28:02.961Z,72.40
2023-02-20T09:30:29.783Z,72.70
2023-02-20T09:32:56.649Z,72.50
2023-02-20T09:35:28.947Z,72.20
2023-02-20T09:37:56.551Z,72.10
2023-02-20T09:40:29.038Z,71.70
2023-02-20T09:43:50.670Z,72.50
2023-02-20T09:46:22.617Z,71.80
2023-02-20T09:49:14.476Z,71.30
2023-02-20T09:52:00.612Z,71.50
2023-02-20T09:54:39.205Z,71.60
2023-02-20T09:57:11.841Z,71.10
2023-02-20T09:59:39.640Z,71.20
2023-02-20T10:02:16.213Z,70.90
2023-02-20T10:05:00.439Z,71.20
2023-02-20T10:07:34.948Z,69.60
2023-02-20T10:10:24.755Z,69.40
2023-02-20T10:13:15.964Z,69.30
2023-02-20T10:16:23.132Z,69.20
2023-02-20T10:19:05.111Z,68.70
2023-02-20T10:21:50.579Z,68.70
2023-02-20T10:24:35.591Z,69.10
2023-02-20T10:27:17.018Z,68.50
2023-02-20T10:29:45.855Z,68.20
2023-02-20T10:32:25.565Z,67.70
2023-02-20T10:35:08.023Z,67.60
2023-02-20T10:37:47.730Z,67.40
2023-02-20T10:40:30.571Z,67.20
2023-02-20T10:43:13.401Z,66.20
2023-02-20T10:45:51.308Z,65.40
2023-02-20T10:48:18.323Z,64.00
2023-02-20T10:50:54.457Z,63.40
2023-02-20T10:53:39.809Z,63.90
2023-02-20T10:56:17.320Z,63.70
2023-02-20T10:58:55.867Z,62.90
2023-02-20T11:01:25.411Z,62.70
2023-02-20T11:03:59.671Z,62.20
2023-02-20T11:06:42.689Z,61.90
2023-02-20T11:09:10.783Z,61.70
2023-02-20T11:11:42.521Z,61.40
2023-02-20T11:14:12.013Z,61.60
2023-02-20T11:16:47.425Z,61.70
2023-02-20T11:19:40.136Z,61.30
2023-02-20T11:22:07.080Z,61.00
2023-02-20T11:24:40.348Z,60.70
2023-02-20T11:27:16.956Z,60.80
2023-02-20T11:29:52.706Z,60.30
2023-02-20T11:32:34.269Z,60.30
2023-02-20T11:35:19.163Z,59.90
2023-02-20T11:37:54.889Z,59.90
2023-02-20T11:40:31.665Z,59.20
2023-02-20T11:43:18.645Z,59.20
2023-02-20T11:45:45.615Z,59.10
2023-02-20T11:48:14.004Z,58.20
2023-02-20T11:50:46.439Z,58.10
2023-02-20T11:53:29.958Z,58.20
2023-02-20T11:56:13.629Z,58.10
2023-02-20T11:58:42.250Z,57.90
2023-02-20T12:01:29.819Z,57.00
2023-02-20T12:03:58.998Z,57.70
2023-02-20T12:06:36.398Z,57.10
2023-02-20T12:09:06.849Z,57.20
2023-02-20T12:11:33.637Z,56.70
2023-02-20T12:14:01.124Z,56.60
2023-02-20T12:16:50.097Z,56.60
2023-02-20T12:19:26.832Z,56.80
2023-02-20T12:22:16.626Z,55.80
2023-02-20T12:24:43.380Z,55.80
2023-02-20T12:27:45.567Z,54.20
2023-02-20T12:30:39.752Z,54.70
2023-02-20T12:33:44.218Z,54.90
2023-02-20T12:36:30.568Z,55.00
2023-02-20T12:39:15.660Z,54.60
2023-02-20T12:41:56.081Z,54.30
2023-02-20T12:44:45.514Z,54.30
2023-02-20T12:47:35.229Z,54.50
2023-02-20T12:50:11.147Z,54.70
2023-02-20T12:53:15.420Z,53.80
2023-02-20T12:56:05.896Z,53.60
2023-02-20T12:58:59.532Z,53.80
2023-02-20T13:01:38.731Z,53.20
2023-02-20T13:04:30.052Z,53.00
2023-02-20T13:07:01.329Z,53.40
2023-02-20T13:09:35.351Z,53.40
2023-02-20T13:12:07.154Z,53.00
2023-02-20T13:14:53.002Z,53.00
2023-02-20T13:17:25.869Z,52.90
2023-02-20T13:20:18.960Z,52.80
2023-02-20T13:23:18.564Z,52.90
2023-02-20T13:25:50.390Z,52.60
2023-02-20T13:28:42.596Z,52.10
2023-02-20T13:31:17.295Z,52.10
2023-02-20T13:34:05.848Z,52.30
2023-02-20T13:36:35.671Z,52.50
2023-02-20T13:39:34.445Z,52.50
2023-02-20T13:42:25.424Z,52.60
2023-02-20T13:44:52.653Z,52.10
2023-02-20T13:47:38.375Z,51.70
2023-02-20T13:50:29.812Z,52.20
2023-02-20T13:52:58.249Z,52.20
2023-02-20T13:55:27.361Z,52.00
2023-02-20T13:58:02.085Z,51.40
2023-02-20T14:00:52.989Z,51.50
2023-02-20T14:14:59.190Z,52.20
2023-02-20T14:17:26.051Z,48.90
2023-02-20T14:20:14.049Z,49.40
2023-02-20T14:22:41.601Z,50.40
2023-02-20T14:25:23.167Z,50.30
2023-02-20T14:27:50.948Z,51.20
2023-02-20T14:30:23.732Z,51.00
2023-02-20T14:32:56.473Z,51.30
2023-02-20T14:35:42.502Z,51.60
2023-02-20T14:38:35.640Z,51.50
2023-02-20T14:41:17.798Z,51.70
2023-02-20T14:43:44.751Z,51.80
2023-02-20T14:46:26.641Z,51.80
2023-02-20T14:49:10.838Z,51.70
2023-02-20T14:51:37.947Z,51.90
2023-02-20T14:54:19.841Z,52.10
2023-02-20T14:56:48.489Z,52.10
2023-02-20T14:59:35.757Z,52.60
2023-02-20T15:02:33.720Z,51.90
2023-02-20T15:05:16.649Z,51.90
2023-02-20T15:07:43.795Z,51.40
2023-02-20T15:10:40.148Z,51.60
2023-02-20T15:13:13.400Z,52.10
2023-02-20T15:15:47.118Z,52.10
2023-02-20T15:18:36.310Z,51.30
2023-02-20T15:21:04.452Z,51.50
2023-02-20T15:23:35.352Z,51.70
2023-02-20T15:26:31.319Z,52.20
2023-02-20T15:29:22.879Z,52.10
2023-02-20T15:32:24.229Z,53.90
2023-02-20T15:34:54.691Z,53.80
2023-02-20T15:37:34.318Z,53.40
2023-02-20T15:40:18.788Z,54.00
2023-02-20T15:42:45.613Z,53.60
2023-02-20T15:45:15.355Z,54.40
2023-02-20T15:47:42.659Z,53.60
2023-02-20T15:50:09.640Z,54.10
2023-02-20T15:52:36.510Z,54.20
2023-02-20T15:55:03.435Z,54.50
2023-02-20T15:57:30.314Z,54.70
2023-02-20T15:59:58.386Z,54.40
2023-02-20T16:02:25.525Z,55.10
2023-02-20T16:04:52.759Z,54.90
2023-02-20T16:07:20.690Z,55.20
2023-02-20T16:09:47.525Z,54.90
2023-02-20T16:12:23.991Z,55.20
2023-02-20T16:14:53.873Z,55.00
2023-02-20T16:17:25.726Z,55.00
2023-02-20T16:19:52.913Z,55.10
2023-02-20T16:22:19.820Z,55.70
2023-02-20T16:24:47.212Z,55.80
2023-02-20T16:27:24.054Z,56.00
2023-02-20T16:29:53.397Z,56.50
2023-02-20T16:32:28.741Z,56.40
2023-02-20T16:34:57.975Z,56.50
2023-02-20T16:37:25.607Z,56.90
2023-02-20T16:39:52.923Z,56.90
2023-02-20T16:42:28.692Z,57.60
2023-02-20T16:44:56.012Z,57.30
2023-02-20T16:47:26.064Z,57.50
2023-02-20T16:49:52.978Z,57.60
2023-02-20T16:52:32.903Z,57.40
2023-02-20T16:55:01.184Z,57.90
2023-02-20T16:57:28.019Z,58.50
2023-02-20T16:59:58.203Z,58.10
2023-02-20T17:02:31.593Z,58.20
2023-02-20T17:04:59.617Z,58.20
2023-02-20T17:07:27.205Z,57.80
2023-02-20T17:09:54.120Z,58.20
2023-02-20T17:12:23.878Z,58.70
2023-02-20T17:14:53.566Z,58.80
2023-02-20T17:17:21.105Z,59.20
2023-02-20T17:19:56.779Z,59.30
2023-02-20T17:22:24.837Z,59.60
2023-02-20T17:24:52.453Z,59.90
2023-02-20T17:27:20.258Z,60.50
2023-02-20T17:29:47.942Z,60.60
2023-02-20T17:35:00.132Z,60.70
2023-02-20T17:37:30.640Z,61.00
2023-02-20T17:39:58.205Z,61.20
2023-02-20T17:42:25.231Z,61.50
2023-02-20T17:44:52.688Z,61.60
2023-02-20T17:47:19.750Z,61.40
2023-02-20T17:49:50.945Z,61.60
2023-02-20T17:52:18.539Z,61.70
2023-02-20T17:54:47.447Z,62.30
2023-02-20T17:57:15.342Z,62.50
2023-02-20T17:59:43.118Z,62.80
2023-02-20T18:02:13.014Z,63.50
2023-02-20T18:04:39.915Z,63.70
2023-02-20T18:07:08.234Z,65.00
2023-02-20T18:09:35.338Z,65.60
2023-02-20T18:12:03.465Z,64.50
2023-02-20T18:14:30.846Z,65.90
2023-02-20T18:16:57.977Z,66.10
2023-02-20T18:19:24.995Z,66.30
2023-02-20T18:21:52.940Z,66.50
2023-02-20T18:24:26.541Z,66.80
2023-02-20T18:26:54.276Z,66.60
2023-02-20T18:29:21.991Z,67.10
2023-02-20T18:31:49.620Z,67.10
2023-02-20T18:34:17.373Z,67.20
2023-02-20T18:36:44.262Z,67.40
2023-02-20T18:39:13.814Z,67.50
2023-02-20T18:41:41.154Z,67.50
2023-02-20T18:44:08.856Z,67.30
2023-02-20T18:46:37.555Z,67.50
2023-02-20T18:49:04.770Z,67.20
2023-02-20T18:51:39.902Z,67.50
2023-02-20T18:54:09.291Z,67.30
2023-02-20T18:56:39.181Z,67.60
2023-02-20T18:59:06.081Z,68.00
2023-02-20T19:01:34.030Z,68.10
2023-02-20T19:04:04.112Z,68.00
2023-02-20T19:06:34.365Z,67.90
2023-02-20T19:09:02.144Z,68.00
2023-02-20T19:11:29.742Z,67.90
2023-02-20T19:13:57.138Z,68.10
2023-02-20T19:16:24.270Z,68.60
2023-02-20T19:18:51.384Z,68.50
2023-02-20T19:21:20.085Z,68.50
2023-02-20T19:23:47.578Z,68.60
2023-02-20T19:26:15.631Z,68.70
2023-02-20T19:28:42.816Z,69.00
2023-02-20T19:31:12.565Z,68.70
2023-02-20T19:33:40.011Z,69.10
2023-02-20T19:36:10.230Z,69.40
2023-02-20T19:38:38.587Z,69.30
2023-02-20T19:41:05.617Z,69.40
2023-02-20T19:43:32.526Z,69.70
2023-02-20T19:45:59.431Z,69.80
2023-02-20T19:48:28.150Z,69.80
2023-02-20T19:50:56.308Z,69.70
2023-02-20T19:53:23.738Z,70.00
2023-02-20T19:55:54.415Z,70.00
2023-02-20T19:58:21.838Z,70.30
2023-02-20T20:00:48.764Z,70.20
2023-02-20T20:03:15.767Z,70.70
2023-02-20T20:05:42.564Z,70.60
2023-02-20T20:08:09.389Z,70.90
2023-02-20T20:10:36.449Z,70.40
2023-02-20T20:13:04.701Z,70.60
2023-02-20T20:15:37.184Z,70.50
2023-02-20T20:18:04.801Z,70.50
2023-02-20T20:20:32.912Z,70.50
2023-02-20T20:23:02.535Z,70.90
2023-02-20T20:25:29.426Z,70.80
2023-02-20T20:28:00.996Z,70.60
2023-02-20T20:30:29.891Z,70.80
2023-02-20T20:32:57.646Z,70.70
2023-02-20T20:35:26.591Z,71.20
2023-02-20T20:37:54.150Z,71.00
2023-02-20T20:40:22.768Z,71.00
2023-02-20T20:42:50.104Z,71.10
2023-02-20T20:45:18.563Z,71.20
2023-02-20T20:47:45.757Z,71.20
2023-02-20T20:50:16.579Z,70.80
2023-02-20T20:52:43.856Z,71.30
2023-02-20T20:55:11.533Z,70.90
2023-02-20T20:57:40.598Z,70.90
2023-02-20T21:00:10.702Z,71.10
2023-02-20T21:02:37.667Z,71.00
2023-02-20T21:05:10.571Z,71.00
2023-02-20T21:07:39.514Z,71.00
2023-02-20T21:10:07.793Z,70.90
2023-02-20T21:12:34.660Z,71.10
2023-02-20T21:15:01.671Z,70.80
2023-02-20T21:17:28.582Z,71.10
2023-02-20T21:19:55.618Z,70.90
2023-02-20T21:22:23.256Z,70.90
2023-02-20T21:24:50.360Z,71.30
2023-02-20T21:27:17.611Z,71.30
2023-02-20T21:29:44.420Z,71.10
2023-02-20T21:32:11.244Z,71.20
2023-02-20T21:34:38.143Z,71.50
2023-02-20T21:37:05.025Z,71.60
2023-02-20T21:39:31.819Z,71.80
2023-02-20T21:42:17.320Z,71.50
2023-02-20T21:44:47.949Z,71.70
2023-02-20T21:47:16.481Z,71.10
2023-02-20T21:49:45.999Z,71.60
2023-02-20T21:52:13.408Z,71.00
2023-02-20T21:54:41.668Z,71.60
2023-02-20T21:57:08.587Z,71.60
2023-02-20T21:59:35.326Z,71.70
2023-02-20T22:02:02.148Z,71.60
2023-02-20T22:04:28.977Z,71.70
2023-02-20T22:07:14.364Z,71.70
2023-02-20T22:09:59.996Z,71.80
2023-02-20T22:12:45.408Z,72.00
2023-02-20T22:15:32.852Z,72.10
2023-02-20T22:18:18.065Z,72.40
2023-02-20T22:21:03.765Z,72.20
2023-02-20T22:23:49.211Z,71.70
2023-02-20T22:26:36.028Z,71.90
2023-02-20T22:29:22.470Z,71.70
2023-02-20T22:32:08.223Z,71.40
2023-02-20T22:35:09.192Z,71.40
2023-02-20T22:37:56.020Z,71.40
2023-02-20T22:40:41.836Z,71.10
2023-02-20T22:43:27.118Z,70.90
2023-02-20T22:46:12.816Z,71.00
2023-02-20T22:48:58.277Z,70.90
2023-02-20T22:51:43.869Z,71.00
2023-02-20T22:54:29.262Z,71.20
2023-02-20T22:57:16.017Z,70.90
2023-02-20T23:00:02.042Z,70.80
2023-02-20T23:02:47.837Z,71.00
2023-02-20T23:05:33.415Z,70.90
2023-02-20T23:08:19.578Z,70.80
2023-02-20T23:11:04.932Z,70.50
2023-02-20T23:13:50.695Z,70.40
2023-02-20T23:16:40.270Z,70.30
2023-02-20T23:19:27.999Z,70.20
2023-02-20T23:22:14.808Z,70.20
2023-02-20T23:25:00.419Z,69.80
2023-02-20T23:27:46.053Z,69.90
2023-02-20T23:30:32.027Z,70.20
2023-02-20T23:33:17.512Z,70.00
2023-02-20T23:36:03.320Z,69.90
2023-02-20T23:38:49.121Z,70.00
2023-02-20T23:41:34.743Z,69.80
2023-02-20T23:44:19.900Z,70.10
2023-02-20T23:47:05.989Z,69.90
2023-02-20T23:49:51.301Z,69.70
2023-02-20T23:52:36.678Z,69.90
2023-02-20T23:55:22.353Z,70.10
2023-02-20T23:58:08.026Z,69.80
